createdAt,value
2023-08-22T00:01:26.446Z,102288.06
2023-08-22T00:03:58.143Z,102279.47
2023-08-22T00:06:29.631Z,102289.81
2023-08-22T00:08:56.675Z,102288.69
2023-08-22T00:11:23.501Z,102286.28
2023-08-22T00:13:50.354Z,102285.19
2023-08-22T00:16:17.262Z,102289.47
2023-08-22T00:18:44.164Z,102289.16
2023-08-22T00:21:11.054Z,102289.13
2023-08-22T00:23:39.202Z,102278.03
2023-08-22T00:26:06.293Z,102288.22
2023-08-22T00:28:32.984Z,102286.13
2023-08-22T00:31:00.349Z,102278.50
2023-08-22T00:33:27.193Z,102282.47
2023-08-22T00:35:54.191Z,102289.91
2023-08-22T00:38:20.856Z,102281.00
2023-08-22T00:40:48.248Z,102278.91
2023-08-22T00:43:15.068Z,102264.34
2023-08-22T00:45:44.350Z,102258.94
2023-08-22T00:48:29.639Z,102266.56
2023-08-22T00:50:56.428Z,102258.28
2023-08-22T00:53:25.353Z,102264.31
2023-08-22T00:55:52.394Z,102260.66
2023-08-22T00:58:19.815Z,102261.28
2023-08-22T01:00:48.027Z,102273.47
2023-08-22T01:03:19.415Z,102266.31
2023-08-22T01:05:54.225Z,102270.94
2023-08-22T01:08:28.844Z,102276.13
2023-08-22T01:11:00.176Z,102269.97
2023-08-22T01:13:34.534Z,102253.63
2023-08-22T01:16:02.395Z,102260.91
2023-08-22T01:18:30.230Z,102255.03
2023-08-22T01:21:06.143Z,102243.13
2023-08-22T01:23:34.215Z,102230.59
2023-08-22T01:26:05.798Z,102230.59
2023-08-22T01:28:46.439Z,102238.09
2023-08-22T01:31:30.545Z,102243.47
2023-08-22T01:34:14.762Z,102229.19
2023-08-22T01:36:43.719Z,102229.69
2023-08-22T01:39:12.351Z,102237.78
2023-08-22T01:41:39.533Z,102230.78
2023-08-22T01:44:06.338Z,102218.72
2023-08-22T01:46:33.304Z,102229.03
2023-08-22T01:49:00.305Z,102231.53
2023-08-22T01:51:27.169Z,102231.06
2023-08-22T01:53:53.903Z,102238.19
2023-08-22T01:56:20.574Z,102233.91
2023-08-22T01:58:47.352Z,102232.63
2023-08-22T02:01:14.872Z,102228.66
2023-08-22T02:03:43.170Z,102217.06
2023-08-22T02:06:11.081Z,102223.25
2023-08-22T02:08:39.585Z,102222.00
2023-08-22T02:11:06.776Z,102223.41
2023-08-22T02:13:33.739Z,102224.81
2023-08-22T02:16:02.017Z,102213.69
2023-08-22T02:18:29.028Z,102223.97
2023-08-22T02:20:57.395Z,102219.66
2023-08-22T02:23:24.641Z,102222.97
2023-08-22T02:25:51.293Z,102224.06
2023-08-22T02:28:18.201Z,102227.41
2023-08-22T02:30:44.895Z,102225.63
2023-08-22T02:33:11.747Z,102227.84
2023-08-22T02:35:38.901Z,102219.88
2023-08-22T02:38:06.073Z,102217.63
2023-08-22T02:40:32.827Z,102220.94
2023-08-22T02:42:59.886Z,102218.06
2023-08-22T02:45:27.198Z,102220.56
2023-08-22T02:47:54.711Z,102227.34
2023-08-22T02:50:24.857Z,102222.56
2023-08-22T02:52:52.446Z,102218.91
2023-08-22T02:55:19.354Z,102220.63
2023-08-22T02:57:46.397Z,102229.03
2023-08-22T03:00:14.349Z,102222.66
2023-08-22T03:02:41.355Z,102216.94
2023-08-22T03:05:12.989Z,102213.94
2023-08-22T03:07:40.499Z,102211.75
2023-08-22T03:10:11.501Z,102210.66
2023-08-22T03:12:38.334Z,102206.50
2023-08-22T03:15:05.838Z,102206.97
2023-08-22T03:17:33.209Z,102211.56
2023-08-22T03:20:00.925Z,102209.78
2023-08-22T03:22:27.905Z,102210.09
2023-08-22T03:24:54.804Z,102210.53
2023-08-22T03:27:21.936Z,102211.44
2023-08-22T03:29:48.576Z,102210.16
2023-08-22T03:32:15.409Z,102203.50
2023-08-22T03:34:43.330Z,102206.19
2023-08-22T03:37:09.969Z,102198.13
2023-08-22T03:39:36.797Z,102209.69
2023-08-22T03:42:03.536Z,102199.22
2023-08-22T03:44:31.699Z,102196.22
2023-08-22T03:46:58.697Z,102195.72
2023-08-22T03:49:25.529Z,102192.25
2023-08-22T03:51:52.368Z,102192.72
2023-08-22T03:54:19.423Z,102189.72
2023-08-22T03:56:46.203Z,102195.09
2023-08-22T03:59:15.967Z,102201.41
2023-08-22T04:01:42.812Z,102195.53
2023-08-22T04:04:09.829Z,102184.75
2023-08-22T04:06:36.568Z,102189.06
2023-08-22T04:09:03.855Z,102194.44
2023-08-22T04:11:30.664Z,102192.84
2023-08-22T04:13:57.558Z,102190.44
2023-08-22T04:16:24.543Z,102192.34
2023-08-22T04:18:52.443Z,102187.25
2023-08-22T04:21:19.286Z,102198.03
2023-08-22T04:23:46.039Z,102194.84
2023-08-22T04:26:12.743Z,102191.66
2023-08-22T04:28:40.289Z,102191.50
2023-08-22T04:31:07.666Z,102193.38
2023-08-22T04:33:34.516Z,102203.16
2023-08-22T04:36:01.358Z,102200.31
2023-08-22T04:38:28.084Z,102198.41
2023-08-22T04:40:55.164Z,102207.88
2023-08-22T04:43:22.266Z,102203.28
2023-08-22T04:45:52.747Z,102208.97
2023-08-22T04:48:22.325Z,102221.16
2023-08-22T04:50:49.868Z,102229.94
2023-08-22T04:53:16.764Z,102223.69
2023-08-22T04:55:46.640Z,102221.09
2023-08-22T04:58:13.940Z,102222.69
2023-08-22T05:00:40.836Z,102216.22
2023-08-22T05:03:07.833Z,102214.31
2023-08-22T05:05:34.756Z,102216.22
2023-08-22T05:08:11.383Z,102215.91
2023-08-22T05:10:38.364Z,102223.69
2023-08-22T05:13:05.937Z,102213.41
2023-08-22T05:15:32.806Z,102214.50
2023-08-22T05:17:59.752Z,102214.72
2023-08-22T05:20:27.703Z,102209.53
2023-08-22T05:22:54.840Z,102202.72
2023-08-22T05:25:21.888Z,102199.75
2023-08-22T05:27:49.511Z,102193.25
2023-08-22T05:30:16.286Z,102189.75
2023-08-22T05:32:43.659Z,102197.53
2023-08-22T05:35:12.095Z,102199.13
2023-08-22T05:37:39.429Z,102203.38
2023-08-22T05:40:12.276Z,102200.41
2023-08-22T05:42:41.155Z,102201.09
2023-08-22T05:45:09.092Z,102202.75
2023-08-22T05:47:36.157Z,102200.72
2023-08-22T05:50:06.393Z,102209.78
2023-08-22T05:52:33.166Z,102210.75
2023-08-22T05:54:59.876Z,102219.03
2023-08-22T05:57:28.973Z,102222.22
2023-08-22T05:59:56.097Z,102216.84
2023-08-22T06:02:22.831Z,102220.81
2023-08-22T06:04:49.950Z,102213.03
2023-08-22T06:07:17.185Z,102213.84
2023-08-22T06:09:44.966Z,102211.44
2023-08-22T06:12:16.408Z,102216.84
2023-08-22T06:14:43.394Z,102209.25
2023-08-22T06:17:10.804Z,102213.22
2023-08-22T06:19:43.029Z,102217.19
2023-08-22T06:22:10.231Z,102215.81
2023-08-22T06:24:37.429Z,102209.31
2023-08-22T06:27:04.305Z,102209.50
2023-08-22T06:29:33.268Z,102209.97
2023-08-22T06:32:02.774Z,102210.66
2023-08-22T06:34:34.364Z,102218.16
2023-08-22T06:37:01.084Z,102216.50
2023-08-22T06:39:29.513Z,102223.09
2023-08-22T06:41:56.420Z,102213.97
2023-08-22T06:44:23.313Z,102218.50
2023-08-22T06:46:50.290Z,102210.00
2023-08-22T06:49:17.422Z,102205.59
2023-08-22T06:51:44.206Z,102203.06
2023-08-22T06:54:13.921Z,102202.72
2023-08-22T06:56:43.521Z,102201.44
2023-08-22T06:59:49.913Z,102207.78
2023-08-22T07:02:20.662Z,102208.69
2023-08-22T07:04:58.946Z,102211.50
2023-08-22T07:07:26.600Z,102218.47
2023-08-22T07:09:53.391Z,102213.50
2023-08-22T07:12:20.305Z,102219.69
2023-08-22T07:14:54.279Z,102221.88
2023-08-22T07:17:21.098Z,102213.03
2023-08-22T07:19:47.826Z,102226.22
2023-08-22T07:22:14.579Z,102223.16
2023-08-22T07:24:44.629Z,102222.31
2023-08-22T07:27:12.730Z,102226.88
2023-08-22T07:29:39.627Z,102230.63
2023-08-22T07:32:07.727Z,102234.28
2023-08-22T07:34:34.708Z,102239.38
2023-08-22T07:37:01.842Z,102231.97
2023-08-22T07:39:29.409Z,102226.69
2023-08-22T07:41:57.151Z,102235.84
2023-08-22T07:44:25.622Z,102240.56
2023-08-22T07:46:52.584Z,102252.56
2023-08-22T07:49:22.181Z,102253.84
2023-08-22T07:51:51.751Z,102255.09
2023-08-22T07:54:19.158Z,102254.09
2023-08-22T08:00:00.214Z,102269.38
2023-08-22T08:02:41.783Z,102275.41
2023-08-22T08:05:11.967Z,102276.50
2023-08-22T08:07:39.954Z,102275.72
2023-08-22T08:10:07.513Z,102275.06
2023-08-22T08:13:12.529Z,102269.75
2023-08-22T08:16:07.248Z,102282.69
2023-08-22T08:18:35.213Z,102277.91
2023-08-22T08:21:02.120Z,102273.41
2023-08-22T08:23:31.483Z,102274.91
2023-08-22T08:25:58.081Z,102269.03
2023-08-22T08:28:37.141Z,102268.34
2023-08-22T08:31:09.912Z,102272.97
2023-08-22T08:33:36.996Z,102274.25
2023-08-22T08:36:06.245Z,102270.66
2023-08-22T08:38:48.158Z,102261.16
2023-08-22T08:41:23.309Z,102259.59
2023-08-22T08:43:50.932Z,102273.06
2023-08-22T08:46:17.900Z,102263.69
2023-08-22T08:48:46.800Z,102266.94
2023-08-22T08:51:15.540Z,102265.59
2023-08-22T08:53:42.949Z,102259.81
2023-08-22T08:56:13.222Z,102255.63
2023-08-22T08:58:40.340Z,102255.75
2023-08-22T09:01:12.258Z,102265.03
2023-08-22T09:03:39.609Z,102263.91
2023-08-22T09:06:06.238Z,102260.97
2023-08-22T09:08:33.275Z,102259.25
2023-08-22T09:11:00.062Z,102260.69
2023-08-22T09:13:38.829Z,102260.00
2023-08-22T09:16:17.187Z,102252.72
2023-08-22T09:18:44.400Z,102260.66
2023-08-22T09:21:12.197Z,102258.91
2023-08-22T09:23:41.781Z,102265.00
2023-08-22T09:26:09.306Z,102265.19
2023-08-22T09:28:41.049Z,102254.66
2023-08-22T09:31:08.334Z,102259.06
2023-08-22T09:33:49.398Z,102258.13
2023-08-22T09:36:21.438Z,102261.16
2023-08-22T09:38:55.908Z,102250.13
2023-08-22T09:41:28.054Z,102253.56
2023-08-22T09:43:58.275Z,102259.19
2023-08-22T09:46:26.027Z,102250.41
2023-08-22T09:48:54.019Z,102244.59
2023-08-22T09:51:24.882Z,102252.84
2023-08-22T09:54:01.279Z,102247.94
2023-08-22T09:56:28.237Z,102252.09
2023-08-22T09:58:55.284Z,102263.59
2023-08-22T10:01:26.597Z,102254.16
2023-08-22T10:03:55.889Z,102263.41
2023-08-22T10:06:42.552Z,102266.84
2023-08-22T10:09:13.295Z,102263.31
2023-08-22T10:11:43.363Z,102261.91
2023-08-22T10:14:19.975Z,102259.34
2023-08-22T10:16:47.238Z,102259.88
2023-08-22T10:19:15.518Z,102259.25
2023-08-22T10:21:45.066Z,102257.31
2023-08-22T10:24:27.441Z,102257.88
2023-08-22T10:27:12.572Z,102262.66
2023-08-22T10:29:48.725Z,102256.47
2023-08-22T10:32:15.436Z,102260.56
2023-08-22T10:34:42.017Z,102269.19
2023-08-22T10:37:20.957Z,102271.22
2023-08-22T10:39:53.901Z,102263.31
2023-08-22T10:42:23.584Z,102253.91
2023-08-22T10:44:52.094Z,102257.16
2023-08-22T10:47:21.071Z,102266.66
2023-08-22T10:52:39.883Z,102267.75
2023-08-22T10:55:13.339Z,102260.75
2023-08-22T10:57:43.219Z,102262.53
2023-08-22T11:00:23.339Z,102261.22
2023-08-22T11:02:52.772Z,102265.16
2023-08-22T11:05:20.122Z,102262.09
2023-08-22T11:07:50.054Z,102256.91
2023-08-22T11:10:19.465Z,102262.16
2023-08-22T11:12:47.450Z,102271.03
2023-08-22T11:15:15.909Z,102261.84
2023-08-22T11:17:44.727Z,102271.38
2023-08-22T11:20:17.786Z,102266.44
2023-08-22T11:22:46.014Z,102272.63
2023-08-22T11:25:14.033Z,102271.09
2023-08-22T11:27:41.843Z,102251.59
2023-08-22T11:30:10.378Z,102258.13
2023-08-22T11:32:40.266Z,102273.09
2023-08-22T11:35:08.811Z,102263.78
2023-08-22T11:37:41.953Z,102264.94
2023-08-22T11:40:16.491Z,102258.41
2023-08-22T11:42:43.942Z,102264.84
2023-08-22T11:45:18.955Z,102263.06
2023-08-22T11:47:50.846Z,102265.56
2023-08-22T11:50:22.553Z,102264.34
2023-08-22T11:52:54.830Z,102267.78
2023-08-22T11:55:29.440Z,102267.50
2023-08-22T11:57:58.112Z,102272.22
2023-08-22T12:00:32.572Z,102268.06
2023-08-22T12:03:01.362Z,102260.16
2023-08-22T12:05:36.553Z,102252.81
2023-08-22T12:08:12.615Z,102264.81
2023-08-22T12:10:47.942Z,102267.75
2023-08-22T12:13:17.633Z,102266.75
2023-08-22T12:15:45.753Z,102268.19
2023-08-22T12:18:13.464Z,102263.47
2023-08-22T12:20:43.027Z,102263.75
2023-08-22T12:23:14.530Z,102269.06
2023-08-22T12:25:43.559Z,102255.78
2023-08-22T12:28:11.573Z,102267.28
2023-08-22T12:30:40.048Z,102263.19
2023-08-22T12:33:10.435Z,102271.50
2023-08-22T12:35:46.372Z,102268.09
2023-08-22T12:38:13.067Z,102275.59
2023-08-22T12:40:40.999Z,102278.72
2023-08-22T12:43:07.570Z,102273.31
2023-08-22T12:45:34.225Z,102274.16
2023-08-22T12:48:01.050Z,102273.81
2023-08-22T12:50:27.795Z,102270.00
2023-08-22T12:52:54.546Z,102269.66
2023-08-22T12:55:22.388Z,102276.75
2023-08-22T12:57:52.213Z,102272.22
2023-08-22T13:00:21.327Z,102265.28
2023-08-22T13:02:48.397Z,102257.09
2023-08-22T13:05:15.606Z,102260.81
2023-08-22T13:07:45.976Z,102260.53
2023-08-22T13:10:15.639Z,102262.19
2023-08-22T13:12:42.437Z,102249.69
2023-08-22T13:15:11.765Z,102257.88
2023-08-22T13:17:38.634Z,102245.69
2023-08-22T13:20:06.525Z,102243.75
2023-08-22T13:22:33.264Z,102243.41
2023-08-22T13:24:59.987Z,102246.13
2023-08-22T13:27:26.888Z,102240.38
2023-08-22T13:29:53.500Z,102247.47
2023-08-22T13:32:20.224Z,102245.97
2023-08-22T13:34:46.972Z,102256.59
2023-08-22T13:37:13.847Z,102248.69
2023-08-22T13:39:40.764Z,102234.69
2023-08-22T13:42:07.968Z,102233.53
2023-08-22T13:44:36.511Z,102251.56
2023-08-22T13:47:03.264Z,102250.75
2023-08-22T13:49:29.919Z,102253.22
2023-08-22T13:51:58.217Z,102252.34
2023-08-22T13:54:25.401Z,102248.91
2023-08-22T13:56:57.206Z,102235.91
2023-08-22T13:59:24.970Z,102233.91
2023-08-22T14:01:51.668Z,102227.88
2023-08-22T14:04:20.896Z,102235.28
2023-08-22T14:06:49.832Z,102235.34
2023-08-22T14:09:26.204Z,102240.00
2023-08-22T14:11:54.157Z,102236.13
2023-08-22T14:14:21.063Z,102231.84
2023-08-22T14:16:48.375Z,102231.41
2023-08-22T14:19:15.086Z,102228.28
2023-08-22T14:21:47.667Z,102231.53
2023-08-22T14:24:15.315Z,102229.28
2023-08-22T14:26:42.152Z,102225.47
2023-08-22T14:29:08.829Z,102230.63
2023-08-22T14:31:38.615Z,102211.28
2023-08-22T14:34:05.365Z,102219.06
2023-08-22T14:36:32.085Z,102223.28
2023-08-22T14:38:59.004Z,102215.41
2023-08-22T14:41:25.885Z,102222.88
2023-08-22T14:43:54.209Z,102211.53
2023-08-22T14:46:21.193Z,102207.56
2023-08-22T14:48:48.197Z,102218.44
2023-08-22T14:51:19.312Z,102213.69
2023-08-22T14:53:46.106Z,102217.63
2023-08-22T14:56:13.048Z,102212.19
2023-08-22T14:58:50.818Z,102210.88
2023-08-22T15:01:20.317Z,102209.75
2023-08-22T15:03:48.063Z,102203.31
2023-08-22T15:06:15.022Z,102201.94
2023-08-22T15:08:42.146Z,102211.41
2023-08-22T15:11:09.661Z,102206.84
2023-08-22T15:13:36.503Z,102194.63
2023-08-22T15:16:03.353Z,102201.25
2023-08-22T15:18:30.541Z,102209.13
2023-08-22T15:21:00.568Z,102207.59
2023-08-22T15:23:29.672Z,102210.06
2023-08-22T15:25:57.552Z,102205.50
2023-08-22T15:28:25.509Z,102208.50
2023-08-22T15:30:59.229Z,102209.63
2023-08-22T15:33:29.611Z,102220.34
2023-08-22T15:36:00.342Z,102203.09
2023-08-22T15:38:35.464Z,102203.81
2023-08-22T15:41:03.197Z,102205.06
2023-08-22T15:43:40.388Z,102204.44
2023-08-22T15:46:07.162Z,102212.38
2023-08-22T15:48:33.940Z,102208.44
2023-08-22T15:51:00.841Z,102209.13
2023-08-22T15:53:27.801Z,102205.56
2023-08-22T15:55:54.879Z,102201.63
2023-08-22T15:58:21.652Z,102209.06
2023-08-22T16:00:48.585Z,102209.06
2023-08-22T16:03:15.999Z,102212.28
2023-08-22T16:05:42.822Z,102200.16
2023-08-22T16:08:09.720Z,102199.75
2023-08-22T16:10:36.816Z,102205.13
2023-08-22T16:13:03.671Z,102204.91
2023-08-22T16:15:31.787Z,102203.34
2023-08-22T16:17:58.879Z,102210.63
2023-08-22T16:20:26.346Z,102206.97
2023-08-22T16:22:53.139Z,102206.44
2023-08-22T16:25:19.806Z,102201.22
2023-08-22T16:27:46.846Z,102203.09
2023-08-22T16:30:14.397Z,102200.88
2023-08-22T16:32:41.320Z,102202.81
2023-08-22T16:35:08.418Z,102195.44
2023-08-22T16:37:35.203Z,102195.44
2023-08-22T16:40:01.925Z,102191.91
2023-08-22T16:42:28.891Z,102192.00
2023-08-22T16:44:55.572Z,102192.84
2023-08-22T16:47:22.205Z,102188.28
2023-08-22T16:49:49.020Z,102186.34
2023-08-22T16:52:15.682Z,102186.25
2023-08-22T16:54:42.627Z,102188.41
2023-08-22T16:57:09.758Z,102183.25
2023-08-22T16:59:36.936Z,102186.56
2023-08-22T17:02:04.230Z,102182.56
2023-08-22T17:04:30.877Z,102182.13
2023-08-22T17:06:57.738Z,102185.59
2023-08-22T17:09:24.479Z,102179.22
2023-08-22T17:11:51.197Z,102183.81
2023-08-22T17:14:18.521Z,102180.38
2023-08-22T17:16:45.288Z,102182.59
2023-08-22T17:19:13.336Z,102195.28
2023-08-22T17:21:40.739Z,102190.56
2023-08-22T17:24:07.592Z,102191.00
2023-08-22T17:26:34.448Z,102195.72
2023-08-22T17:29:04.167Z,102189.97
2023-08-22T17:31:31.672Z,102185.22
2023-08-22T17:33:58.293Z,102186.72
2023-08-22T17:36:24.964Z,102186.66
2023-08-22T17:38:52.206Z,102189.75
2023-08-22T17:41:19.162Z,102198.19
2023-08-22T17:43:45.855Z,102195.22
2023-08-22T17:46:14.282Z,102190.44
2023-08-22T17:48:41.200Z,102198.16
2023-08-22T17:51:07.880Z,102195.97
2023-08-22T17:53:34.634Z,102198.63
2023-08-22T17:56:01.300Z,102202.81
2023-08-22T17:58:28.080Z,102205.81
2023-08-22T18:00:54.719Z,102204.84
2023-08-22T18:03:21.856Z,102202.81
2023-08-22T18:05:57.746Z,102201.59
2023-08-22T18:08:25.716Z,102191.88
2023-08-22T18:10:53.902Z,102204.16
2023-08-22T18:13:21.325Z,102202.06
2023-08-22T18:18:31.241Z,102198.19
2023-08-22T18:21:05.873Z,102197.28
2023-08-22T18:23:32.959Z,102197.56
2023-08-22T18:26:03.572Z,102203.72
2023-08-22T18:28:32.802Z,102193.44
2023-08-22T18:31:01.911Z,102199.00
2023-08-22T18:33:29.137Z,102206.63
2023-08-22T18:35:56.415Z,102203.44
2023-08-22T18:38:23.180Z,102204.84
2023-08-22T18:40:56.012Z,102211.31
2023-08-22T18:43:22.795Z,102211.59
2023-08-22T18:45:50.273Z,102207.63
2023-08-22T18:48:18.412Z,102211.94
2023-08-22T18:50:46.942Z,102221.47
2023-08-22T18:53:15.560Z,102226.34
2023-08-22T18:55:42.299Z,102226.94
2023-08-22T18:58:08.955Z,102233.84
2023-08-22T19:00:35.792Z,102221.41
2023-08-22T19:03:02.670Z,102239.63
2023-08-22T19:05:29.501Z,102238.06
2023-08-22T19:07:56.236Z,102241.69
2023-08-22T19:10:23.028Z,102247.81
2023-08-22T19:12:49.707Z,102245.34
2023-08-22T19:15:16.544Z,102261.38
2023-08-22T19:17:43.916Z,102258.91
2023-08-22T19:20:11.644Z,102258.91
2023-08-22T19:22:41.313Z,102259.94
2023-08-22T19:25:08.520Z,102264.78
2023-08-22T19:27:37.727Z,102261.19
2023-08-22T19:30:04.988Z,102265.69
2023-08-22T19:32:48.247Z,102267.19
2023-08-22T19:35:18.626Z,102263.91
2023-08-22T19:37:45.940Z,102263.13
2023-08-22T19:40:14.316Z,102259.63
2023-08-22T19:42:41.088Z,102258.72
2023-08-22T19:45:09.099Z,102250.91
2023-08-22T19:47:38.493Z,102258.72
2023-08-22T19:50:05.827Z,102259.69
2023-08-22T19:52:32.823Z,102260.72
2023-08-22T19:55:00.275Z,102261.28
2023-08-22T19:57:30.005Z,102258.00
2023-08-22T19:59:57.919Z,102251.34
2023-08-22T20:02:25.325Z,102271.94
2023-08-22T20:04:52.359Z,102264.00
2023-08-22T20:07:19.093Z,102260.56
2023-08-22T20:09:45.920Z,102255.69
2023-08-22T20:12:12.664Z,102257.84
2023-08-22T20:14:41.077Z,102255.41
2023-08-22T20:17:08.801Z,102264.19
2023-08-22T20:19:35.498Z,102265.53
2023-08-22T20:22:02.498Z,102250.91
2023-08-22T20:24:29.192Z,102255.28
2023-08-22T20:27:02.940Z,102251.22
2023-08-22T20:29:30.327Z,102251.59
2023-08-22T20:31:57.687Z,102253.22
2023-08-22T20:34:27.729Z,102251.13
2023-08-22T20:36:54.257Z,102248.00
2023-08-22T20:39:21.311Z,102240.59
2023-08-22T20:41:48.396Z,102237.50
2023-08-22T20:44:15.195Z,102243.28
2023-08-22T20:46:42.101Z,102242.19
2023-08-22T20:49:08.826Z,102248.56
2023-08-22T20:51:36.474Z,102248.59
2023-08-22T20:54:03.186Z,102250.22
2023-08-22T20:56:29.940Z,102249.78
2023-08-22T20:58:57.791Z,102252.97
2023-08-22T21:01:24.728Z,102241.56
2023-08-22T21:03:51.540Z,102247.94
2023-08-22T21:06:18.314Z,102246.19
2023-08-22T21:08:45.966Z,102247.16
2023-08-22T21:11:12.565Z,102243.03
2023-08-22T21:13:39.547Z,102247.97
2023-08-22T21:16:06.420Z,102254.34
2023-08-22T21:18:34.099Z,102255.94
2023-08-22T21:21:01.365Z,102264.03
2023-08-22T21:23:28.437Z,102258.97
2023-08-22T21:25:58.548Z,102265.00
2023-08-22T21:28:25.236Z,102257.72
2023-08-22T21:30:52.613Z,102265.94
2023-08-22T21:33:19.699Z,102272.19
2023-08-22T21:35:47.705Z,102272.47
2023-08-22T21:38:14.441Z,102278.81
2023-08-22T21:40:48.057Z,102285.00
2023-08-22T21:43:15.451Z,102277.06
2023-08-22T21:45:43.232Z,102281.50
2023-08-22T21:48:10.180Z,102273.22
2023-08-22T21:50:37.150Z,102274.47
2023-08-22T21:53:03.798Z,102268.41
2023-08-22T21:55:30.579Z,102272.06
2023-08-22T21:57:57.430Z,102277.91
2023-08-22T22:00:24.199Z,102275.97
2023-08-22T22:02:51.489Z,102290.22
2023-08-22T22:05:18.541Z,102293.38
2023-08-22T22:07:46.730Z,102299.69
2023-08-22T22:10:13.616Z,102299.81
2023-08-22T22:12:40.208Z,102293.44
2023-08-22T22:15:07.255Z,102285.69
2023-08-22T22:17:33.796Z,102287.09
2023-08-22T22:20:00.567Z,102278.03
2023-08-22T22:22:27.390Z,102282.44
2023-08-22T22:24:54.022Z,102279.88
2023-08-22T22:27:20.705Z,102276.41
2023-08-22T22:29:47.506Z,102276.72
2023-08-22T22:32:14.516Z,102274.50
2023-08-22T22:34:41.125Z,102265.44
2023-08-22T22:37:09.158Z,102276.53
2023-08-22T22:39:35.783Z,102274.28
2023-08-22T22:42:02.475Z,102274.72
2023-08-22T22:44:29.357Z,102274.53
2023-08-22T22:46:56.353Z,102271.97
2023-08-22T22:49:23.039Z,102254.50
2023-08-22T22:51:49.639Z,102251.50
2023-08-22T22:54:16.444Z,102255.59
2023-08-22T22:56:43.231Z,102250.50
2023-08-22T22:59:09.848Z,102253.47
2023-08-22T23:01:36.545Z,102252.22
2023-08-22T23:04:03.916Z,102257.09
2023-08-22T23:06:30.581Z,102258.03
2023-08-22T23:08:57.321Z,102268.13
2023-08-22T23:11:29.152Z,102270.16
2023-08-22T23:14:10.468Z,102271.88
2023-08-22T23:16:37.210Z,102269.78
2023-08-22T23:19:04.003Z,102275.16
2023-08-22T23:21:30.703Z,102272.97
2023-08-22T23:23:57.526Z,102273.75
2023-08-22T23:26:24.395Z,102272.38
2023-08-22T23:28:51.013Z,102270.75
2023-08-22T23:31:17.727Z,102264.09
2023-08-22T23:33:44.262Z,102266.28
2023-08-22T23:36:11.198Z,102263.59
2023-08-22T23:38:38.353Z,102263.69
2023-08-22T23:41:04.963Z,102268.59
2023-08-22T23:43:31.620Z,102277.00
2023-08-22T23:45:58.362Z,102272.84
2023-08-22T23:48:24.980Z,102276.13
2023-08-22T23:50:52.517Z,102274.03
2023-08-22T23:53:21.880Z,102269.75
2023-08-22T23:55:48.665Z,102266.56
2023-08-22T23:58:15.330Z,102274.47
